Time;durP1;ratioP1;P1;durP2;ratioP2;P2;SDS_P1;SDS_P2;PMS_P1;PMS_P2;Temp;Humidity;BMP_temperature;BMP_pressure;BME280_temperature;BME280_humidity;BME280_pressure;Samples;Min_cycle;Max_cycle;Signal;HPM_P1;HPM_P2
2022/02/05 00:02:33;;;;;;;;;;;3.50;99.90;;;;;;5071908;28;19909;-80
2022/02/05 00:05:00;;;;;;;;;;;3.50;99.90;;;;;;5076054;28;19916;-80
2022/02/05 00:07:29;;;;;;;;;;;3.50;99.90;;;;;;5070075;28;19932;-80
2022/02/05 00:10:19;;;;;;;;;;;3.60;99.90;;;;;;5072151;28;19950;-79
2022/02/05 00:12:59;;;;;;;;;;;3.60;99.90;;;;;;5093051;28;19909;-80
2022/02/05 00:15:36;;;;;;;;;;;3.60;99.90;;;;;;5101726;28;19916;-80
2022/02/05 00:40:05;;;;;;;;;;;3.50;99.90;;;;;;5080946;28;19955;-80
2022/02/05 00:42:38;;;;;;;;;;;3.50;99.90;;;;;;5081206;28;19936;-69
2022/02/05 00:45:07;;;;;;;;;;;3.50;99.90;;;;;;5081355;28;19932;-68
2022/02/05 00:47:37;;;;;;;;;;;3.50;99.90;;;;;;5081466;28;19909;-66
2022/02/05 00:50:09;;;;;;;;;;;3.50;99.90;;;;;;5081285;28;19908;-68
2022/02/05 00:52:36;;;;;;;;;;;3.50;99.90;;;;;;5081093;28;19945;-69
2022/02/05 00:55:07;;;;;;;;;;;3.50;99.90;;;;;;5081220;28;19915;-65
2022/02/05 00:57:46;;;;;;;;;;;3.50;99.90;;;;;;5081264;28;19915;-66
2022/02/05 01:05:52;;;;;;;;;;;3.40;99.90;;;;;;5680895;22;19908;-66
2022/02/05 01:08:19;;;;;;;;;;;3.30;99.90;;;;;;5101049;28;19954;-67
2022/02/05 01:10:46;;;;;;;;;;;3.40;99.90;;;;;;5100884;28;19976;-68
2022/02/05 01:13:13;;;;;;;;;;;3.40;99.90;;;;;;5100910;28;19935;-70
2022/02/05 01:15:47;;;;;;;;;;;3.50;99.90;;;;;;5101000;28;19958;-66
2022/02/05 01:18:16;;;;;;;;;;;3.40;99.90;;;;;;5100825;28;19931;-69
2022/02/05 01:23:33;;;;;;;;;;;3.40;99.90;;;;;;5099979;28;19932;-69
2022/02/05 01:26:08;;;;;;;;;;;3.40;99.90;;;;;;5100131;28;19908;-69
2022/02/05 01:28:36;;;;;;;;;;;3.40;99.90;;;;;;5100612;28;19909;-69
2022/02/05 01:31:03;;;;;;;;;;;3.40;99.90;;;;;;5100471;28;19920;-67
2022/02/05 01:33:52;;;;;;;;;;;3.30;99.90;;;;;;5100518;28;19920;-66
2022/02/05 01:50:34;;;;;;;;;;;3.20;99.90;;;;;;5019739;28;19945;-66
2022/02/05 01:53:13;;;;;;;;;;;3.20;99.90;;;;;;5019768;28;19926;-66
2022/02/05 01:55:58;;;;;;;;;;;3.20;99.90;;;;;;5070939;28;19908;-67
2022/02/05 01:58:37;;;;;;;;;;;3.10;99.90;;;;;;5100045;28;19908;-66
2022/02/05 02:11:57;;;;;;;;;;;2.20;99.90;;;;;;5099964;28;19931;-75
2022/02/05 02:14:45;;;;;;;;;;;3.00;99.90;;;;;;5100014;28;19909;-66
2022/02/05 02:20:18;;;;;;;;;;;3.00;99.90;;;;;;5099691;28;19931;-79
2022/02/05 02:23:00;;;;;;;;;;;3.00;99.90;;;;;;5099539;28;19908;-67
2022/02/05 02:25:39;;;;;;;;;;;3.00;99.90;;;;;;5099542;28;19908;-75
2022/02/05 02:28:11;;;;;;;;;;;3.10;99.90;;;;;;5081946;28;19939;-70
2022/02/05 02:30:50;;;;;;;;;;;3.00;99.90;;;;;;5079435;28;19956;-69
2022/02/05 02:33:24;;;;;;;;;;;3.10;99.90;;;;;;5098535;28;19908;-65
2022/02/05 02:35:51;;;;;;;;;;;3.20;99.90;;;;;;5079004;28;19909;-74
2022/02/05 02:38:23;;;;;;;;;;;3.20;99.90;;;;;;5079266;28;19943;-68
2022/02/05 02:40:59;;;;;;;;;;;3.20;99.90;;;;;;5079346;28;19909;-66
2022/02/05 02:43:29;;;;;;;;;;;3.20;99.90;;;;;;5079321;28;19951;-72
2022/02/05 02:45:57;;;;;;;;;;;3.20;99.90;;;;;;5078623;28;20124;-72
2022/02/05 02:48:24;;;;;;;;;;;3.20;99.90;;;;;;5079201;28;19909;-67
2022/02/05 02:56:31;;;;;;;;;;;3.00;99.90;;;;;;5079247;28;19972;-69
2022/02/05 02:59:04;;;;;;;;;;;3.00;99.90;;;;;;5079124;28;19909;-66
2022/02/05 03:01:34;;;;;;;;;;;2.90;99.90;;;;;;5134449;22;19936;-81
2022/02/05 03:04:01;;;;;;;;;;;2.90;99.90;;;;;;5078056;28;19908;-78
2022/02/05 03:06:31;;;;;;;;;;;3.00;99.90;;;;;;5078132;28;19909;-80
2022/02/05 03:08:59;;;;;;;;;;;3.30;99.90;;;;;;5070329;28;19931;-75
2022/02/05 03:11:28;;;;;;;;;;;3.20;99.90;;;;;;5078742;28;19921;-68
2022/02/05 03:13:55;;;;;;;;;;;3.00;99.90;;;;;;5078481;28;19964;-78
2022/02/05 03:16:24;;;;;;;;;;;2.90;99.90;;;;;;5067164;28;19969;-74
2022/02/05 03:19:08;;;;;;;;;;;2.90;99.90;;;;;;5074223;28;19920;-76
2022/02/05 03:21:35;;;;;;;;;;;2.90;99.90;;;;;;5078744;28;19923;-81
2022/02/05 03:24:03;;;;;;;;;;;3.00;99.90;;;;;;5073225;28;19969;-72
2022/02/05 03:26:32;;;;;;;;;;;3.00;99.90;;;;;;5058766;28;19968;-83
2022/02/05 03:28:59;;;;;;;;;;;2.90;99.90;;;;;;5063001;28;19908;-77
2022/02/05 03:31:28;;;;;;;;;;;2.90;99.90;;;;;;5078343;28;19988;-77
2022/02/05 03:33:54;;;;;;;;;;;2.90;99.90;;;;;;5062692;28;19923;-84
2022/02/05 03:36:21;;;;;;;;;;;2.90;99.90;;;;;;5078631;28;19947;-72
2022/02/05 03:38:47;;;;;;;;;;;2.90;99.90;;;;;;5078550;28;19976;-82
2022/02/05 03:41:15;;;;;;;;;;;2.90;99.90;;;;;;5078604;28;19964;-68
2022/02/05 03:43:42;;;;;;;;;;;2.90;99.90;;;;;;5078699;28;19955;-72
2022/02/05 03:46:09;;;;;;;;;;;3.00;99.90;;;;;;5078608;28;19955;-77
2022/02/05 03:48:35;;;;;;;;;;;3.00;99.90;;;;;;5080847;28;19924;-70
2022/02/05 03:51:02;;;;;;;;;;;3.00;99.90;;;;;;5082163;28;19956;-68
2022/02/05 03:53:29;;;;;;;;;;;2.90;99.90;;;;;;5065517;28;19917;-79
2022/02/05 03:55:55;;;;;;;;;;;2.90;99.90;;;;;;5064582;28;19929;-77
2022/02/05 03:58:23;;;;;;;;;;;2.90;99.90;;;;;;5082105;28;19925;-83
2022/02/05 04:03:34;;;;;;;;;;;2.90;99.90;;;;;;5599072;22;19921;-68
2022/02/05 04:06:01;;;;;;;;;;;2.70;99.90;;;;;;5062137;28;19948;-66
2022/02/05 04:08:27;;;;;;;;;;;2.80;99.90;;;;;;5062143;28;19909;-68
2022/02/05 04:11:03;;;;;;;;;;;2.80;99.90;;;;;;5062014;28;19931;-66
2022/02/05 04:16:25;;;;;;;;;;;2.70;99.90;;;;;;5062156;28;19965;-69
2022/02/05 04:18:53;;;;;;;;;;;2.70;99.90;;;;;;5061907;28;19941;-66
2022/02/05 04:21:20;;;;;;;;;;;2.70;99.90;;;;;;5061867;28;19968;-66
2022/02/05 04:23:47;;;;;;;;;;;2.70;99.90;;;;;;5061879;28;19943;-65
2022/02/05 04:26:14;;;;;;;;;;;2.70;99.90;;;;;;5061889;28;19925;-65
2022/02/05 04:28:43;;;;;;;;;;;2.60;99.90;;;;;;5043765;28;19971;-74
2022/02/05 04:31:09;;;;;;;;;;;2.60;99.90;;;;;;5041814;28;19933;-67
2022/02/05 04:33:36;;;;;;;;;;;2.60;99.90;;;;;;5041613;28;19920;-68
2022/02/05 04:36:03;;;;;;;;;;;2.60;99.90;;;;;;5041749;28;19969;-66
2022/02/05 04:38:31;;;;;;;;;;;2.50;99.90;;;;;;5041681;28;19909;-68
2022/02/05 04:41:05;;;;;;;;;;;2.60;99.90;;;;;;5041576;28;19913;-65
2022/02/05 04:46:47;;;;;;;;;;;2.50;99.90;;;;;;5036270;28;19909;-66
2022/02/05 04:49:30;;;;;;;;;;;2.50;99.90;;;;;;5041153;28;19933;-65
2022/02/05 04:55:04;;;;;;;;;;;2.50;99.90;;;;;;5041468;28;19969;-65
2022/02/05 04:57:45;;;;;;;;;;;2.50;99.90;;;;;;5041433;28;19909;-67
2022/02/05 05:41:28;;;;;;;;;;;2.20;99.90;;;;;;5038215;28;19933;-71
2022/02/05 05:44:05;;;;;;;;;;;2.10;99.90;;;;;;5040495;28;19909;-68
2022/02/05 05:46:34;;;;;;;;;;;2.20;99.90;;;;;;5040414;28;19909;-66
2022/02/05 05:49:12;;;;;;;;;;;2.20;99.90;;;;;;5040470;28;19928;-73
2022/02/05 05:51:39;;;;;;;;;;;2.20;99.90;;;;;;5040271;28;19916;-67
2022/02/05 05:54:06;;;;;;;;;;;2.20;99.90;;;;;;5040337;28;19941;-66
2022/02/05 05:56:37;;;;;;;;;;;2.20;99.90;;;;;;5040219;28;19929;-67
2022/02/05 05:59:04;;;;;;;;;;;2.10;99.90;;;;;;5040207;28;19910;-66
2022/02/05 06:04:24;;;;;;;;;;;2.10;99.90;;;;;;5127231;22;19952;-73
2022/02/05 06:06:50;;;;;;;;;;;2.10;99.90;;;;;;5059912;28;19944;-66
2022/02/05 06:09:17;;;;;;;;;;;2.10;99.90;;;;;;5059803;28;19921;-66
2022/02/05 06:11:45;;;;;;;;;;;2.00;99.90;;;;;;5059114;28;19916;-69
2022/02/05 06:14:13;;;;;;;;;;;2.00;99.90;;;;;;5059635;28;19949;-70
2022/02/05 06:16:39;;;;;;;;;;;2.00;99.90;;;;;;5059762;28;19968;-72
2022/02/05 06:19:06;;;;;;;;;;;2.00;99.90;;;;;;5059430;28;19909;-72
2022/02/05 06:21:33;;;;;;;;;;;2.10;99.90;;;;;;5059417;28;19980;-78
2022/02/05 06:23:59;;;;;;;;;;;2.10;99.90;;;;;;5059401;28;19909;-73
2022/02/05 06:26:26;;;;;;;;;;;2.10;99.90;;;;;;5059423;28;19940;-76
2022/02/05 06:28:54;;;;;;;;;;;2.10;99.90;;;;;;5059450;28;19976;-73
2022/02/05 06:31:20;;;;;;;;;;;2.10;99.90;;;;;;5059163;28;19981;-67
2022/02/05 06:33:48;;;;;;;;;;;2.10;99.90;;;;;;5058205;28;19963;-80
2022/02/05 06:36:15;;;;;;;;;;;2.10;99.90;;;;;;5045896;28;19932;-80
2022/02/05 06:38:41;;;;;;;;;;;2.10;99.90;;;;;;5037578;28;19973;-80
2022/02/05 06:41:08;;;;;;;;;;;2.00;99.90;;;;;;5041300;28;19957;-79
2022/02/05 06:43:35;;;;;;;;;;;2.00;99.90;;;;;;5054957;28;19909;-73
2022/02/05 06:46:03;;;;;;;;;;;2.00;99.90;;;;;;5059270;28;19909;-69
2022/02/05 06:48:29;;;;;;;;;;;2.00;99.90;;;;;;5059277;28;19936;-77
2022/02/05 06:50:56;;;;;;;;;;;2.00;99.90;;;;;;5059162;28;19936;-73
2022/02/05 06:53:22;;;;;;;;;;;2.00;99.90;;;;;;5059190;28;19944;-66
2022/02/05 06:55:49;;;;;;;;;;;2.00;99.90;;;;;;5059028;28;19937;-80
2022/02/05 06:58:16;;;;;;;;;;;2.00;99.90;;;;;;5044649;28;19953;-72
2022/02/05 07:00:42;;;;;;;;;;;2.00;99.90;;;;;;5037602;28;19937;-80
2022/02/05 07:03:16;;;;;;;;;;;2.00;99.90;;;;;;5035409;28;19925;-81
2022/02/05 07:05:43;;;;;;;;;;;2.00;99.90;;;;;;5030905;28;19925;-78
2022/02/05 07:08:09;;;;;;;;;;;2.00;99.90;;;;;;5026719;28;20471;-80
2022/02/05 07:10:36;;;;;;;;;;;2.00;99.90;;;;;;5005869;28;19979;-81
2022/02/05 07:13:12;;;;;;;;;;;1.90;99.90;;;;;;5027509;28;19914;-81
2022/02/05 07:15:43;;;;;;;;;;;1.90;99.90;;;;;;5030642;28;19926;-82
2022/02/05 07:18:17;;;;;;;;;;;1.90;99.90;;;;;;5018818;28;19969;-68
2022/02/05 07:20:49;;;;;;;;;;;1.80;99.90;;;;;;5019887;28;19910;-75
2022/02/05 07:23:37;;;;;;;;;;;1.80;99.90;;;;;;5042206;28;19916;-79
2022/02/05 07:29:15;;;;;;;;;;;1.80;99.90;;;;;;5002237;28;19938;-76
2022/02/05 07:31:45;;;;;;;;;;;1.80;99.90;;;;;;5033687;28;19909;-80
2022/02/05 07:34:13;;;;;;;;;;;1.90;99.90;;;;;;5036242;28;19926;-82
2022/02/05 07:36:40;;;;;;;;;;;1.90;99.90;;;;;;5023697;28;19953;-84
2022/02/05 07:39:08;;;;;;;;;;;1.90;99.90;;;;;;5042126;28;19909;-78
2022/02/05 07:41:36;;;;;;;;;;;2.00;99.90;;;;;;5027658;28;19913;-80
2022/02/05 07:44:03;;;;;;;;;;;2.00;99.90;;;;;;5024190;28;19925;-77
2022/02/05 07:46:30;;;;;;;;;;;2.00;99.90;;;;;;5009461;28;19940;-78
2022/02/05 07:48:56;;;;;;;;;;;2.00;99.90;;;;;;5013877;28;19953;-79
2022/02/05 07:51:24;;;;;;;;;;;2.10;99.90;;;;;;5008476;28;19925;-78
2022/02/05 07:53:51;;;;;;;;;;;2.10;99.90;;;;;;5006883;28;20376;-77
2022/02/05 07:56:18;;;;;;;;;;;2.10;99.90;;;;;;5007684;28;19926;-79
2022/02/05 07:58:44;;;;;;;;;;;2.10;99.90;;;;;;5012076;28;20013;-79
2022/02/05 08:01:11;;;;;;;;;;;2.20;99.90;;;;;;5006241;28;20024;-79
2022/02/05 08:03:38;;;;;;;;;;;2.20;99.90;;;;;;5010438;28;19933;-79
2022/02/05 08:06:12;;;;;;;;;;;2.20;99.90;;;;;;5014080;28;19956;-78
2022/02/05 08:08:40;;;;;;;;;;;2.30;99.90;;;;;;5012993;28;19926;-79
2022/02/05 08:11:11;;;;;;;;;;;2.40;99.90;;;;;;5037884;28;19929;-80
2022/02/05 08:13:37;;;;;;;;;;;2.40;99.90;;;;;;5031290;28;19910;-80
2022/02/05 08:16:13;;;;;;;;;;;2.40;99.90;;;;;;5031747;28;19925;-80
2022/02/05 08:18:40;;;;;;;;;;;2.50;99.90;;;;;;5009524;28;19926;-78
2022/02/05 08:21:06;;;;;;;;;;;2.60;99.90;;;;;;5007756;28;19960;-78
2022/02/05 08:23:33;;;;;;;;;;;2.70;99.90;;;;;;5006800;28;20396;-77
2022/02/05 08:26:01;;;;;;;;;;;2.70;99.90;;;;;;5002091;28;19948;-79
2022/02/05 08:28:29;;;;;;;;;;;2.80;99.90;;;;;;5017940;28;19948;-79
2022/02/05 08:30:55;;;;;;;;;;;2.90;99.90;;;;;;5019602;28;20403;-80
2022/02/05 08:33:22;;;;;;;;;;;3.70;99.90;;;;;;5016760;28;19926;-78
2022/02/05 08:35:50;;;;;;;;;;;4.90;99.90;;;;;;5010735;28;19953;-77
2022/02/05 08:38:17;;;;;;;;;;;5.70;99.90;;;;;;5010363;28;20403;-78
2022/02/05 08:40:43;;;;;;;;;;;6.00;99.90;;;;;;5010926;28;19925;-77
2022/02/05 08:43:11;;;;;;;;;;;6.10;99.90;;;;;;4996617;28;20422;-78
2022/02/05 08:45:38;;;;;;;;;;;6.30;99.90;;;;;;4999492;28;19965;-76
2022/02/05 08:48:05;;;;;;;;;;;6.30;99.90;;;;;;5008081;28;20016;-76
2022/02/05 08:50:32;;;;;;;;;;;6.60;99.90;;;;;;5003761;28;19934;-76
2022/02/05 08:52:58;;;;;;;;;;;6.90;99.90;;;;;;4998294;28;20009;-77
2022/02/05 08:55:28;;;;;;;;;;;7.00;99.90;;;;;;5001224;28;20285;-77
2022/02/05 08:57:57;;;;;;;;;;;7.10;99.90;;;;;;5012685;28;19925;-74
2022/02/05 09:00:26;;;;;;;;;;;7.40;99.90;;;;;;5010584;28;19972;-76
2022/02/05 09:02:58;;;;;;;;;;;7.90;99.90;;;;;;5007688;28;20339;-76
2022/02/05 09:05:38;;;;;;;;;;;8.00;99.90;;;;;;4997052;28;20471;-76
2022/02/05 09:08:10;;;;;;;;;;;7.90;99.50;;;;;;5012836;28;20020;-77
2022/02/05 09:10:50;;;;;;;;;;;8.10;99.00;;;;;;5002377;28;19929;-76
2022/02/05 09:13:37;;;;;;;;;;;8.20;98.60;;;;;;4999784;28;19966;-75
2022/02/05 09:16:06;;;;;;;;;;;8.30;98.30;;;;;;4998406;28;19932;-76
2022/02/05 09:18:33;;;;;;;;;;;8.40;98.20;;;;;;5003123;28;20345;-77
2022/02/05 09:20:59;;;;;;;;;;;8.30;98.10;;;;;;5005112;28;20308;-76
2022/02/05 09:23:32;;;;;;;;;;;8.30;97.70;;;;;;4999248;28;19965;-78
2022/02/05 09:26:00;;;;;;;;;;;8.20;97.60;;;;;;4994968;28;19929;-74
2022/02/05 09:28:28;;;;;;;;;;;8.00;98.00;;;;;;5007313;28;20012;-76
2022/02/05 09:31:24;;;;;;;;;;;8.50;97.70;;;;;;5002581;28;19980;-75
2022/02/05 09:33:52;;;;;;;;;;;8.50;97.00;;;;;;5009326;28;19925;-75
2022/02/05 09:36:19;;;;;;;;;;;8.90;96.70;;;;;;5000738;28;19930;-75
2022/02/05 09:38:46;;;;;;;;;;;9.00;96.30;;;;;;5001923;28;20017;-74
2022/02/05 09:41:12;;;;;;;;;;;8.60;95.90;;;;;;5002836;28;19964;-75
2022/02/05 09:43:39;;;;;;;;;;;7.60;97.00;;;;;;5010888;28;19936;-72
2022/02/05 09:46:05;;;;;;;;;;;6.60;98.70;;;;;;4998626;28;19926;-73
2022/02/05 09:48:33;;;;;;;;;;;6.10;99.90;;;;;;5008132;28;19925;-72
2022/02/05 09:51:06;;;;;;;;;;;5.70;99.90;;;;;;5009441;28;19933;-72
2022/02/05 09:53:33;;;;;;;;;;;5.50;99.90;;;;;;5002659;28;19966;-73
2022/02/05 09:55:59;;;;;;;;;;;5.40;99.90;;;;;;4996536;28;19980;-74
2022/02/05 09:58:26;;;;;;;;;;;5.50;99.90;;;;;;5009204;28;20388;-75
2022/02/05 10:01:00;;;;;;;;;;;5.50;99.90;;;;;;5007241;28;19931;-74
2022/02/05 10:03:27;;;;;;;;;;;5.50;99.90;;;;;;5007289;28;19925;-74
2022/02/05 10:06:05;;;;;;;;;;;5.50;99.90;;;;;;5003985;28;19933;-75
2022/02/05 10:08:33;;;;;;;;;;;5.50;99.90;;;;;;5003276;28;20281;-75
2022/02/05 10:11:00;;;;;;;;;;;5.50;99.90;;;;;;5000236;28;19933;-76
2022/02/05 10:13:29;;;;;;;;;;;5.60;99.90;;;;;;5006640;28;19925;-75
2022/02/05 10:15:57;;;;;;;;;;;5.60;99.90;;;;;;5010339;28;19926;-76
2022/02/05 10:18:24;;;;;;;;;;;5.70;99.90;;;;;;5010459;28;19929;-76
2022/02/05 10:20:52;;;;;;;;;;;5.80;99.90;;;;;;5004982;28;20266;-75
2022/02/05 10:23:21;;;;;;;;;;;5.90;99.90;;;;;;5009037;28;20027;-76
2022/02/05 10:25:49;;;;;;;;;;;5.90;99.90;;;;;;5006468;28;20308;-75
2022/02/05 10:28:15;;;;;;;;;;;5.90;99.90;;;;;;5008945;28;19925;-74
2022/02/05 10:30:45;;;;;;;;;;;5.90;99.90;;;;;;5001849;28;19926;-75
2022/02/05 10:33:17;;;;;;;;;;;6.00;99.90;;;;;;5003863;28;20420;-78
2022/02/05 10:35:47;;;;;;;;;;;6.00;99.90;;;;;;5005657;28;19927;-77
2022/02/05 10:43:00;;;;;;;;;;;5.80;99.90;;;;;;5005978;28;20341;-75
2022/02/05 10:43:48;;;;;;;;;;;5.90;99.90;;;;;;5001128;28;21277;-76
2022/02/05 10:46:14;;;;;;;;;;;5.90;99.90;;;;;;4999347;28;19925;-76
2022/02/05 10:48:42;;;;;;;;;;;6.00;99.90;;;;;;5009283;28;20008;-77
2022/02/05 10:51:09;;;;;;;;;;;6.10;99.90;;;;;;4999244;28;19996;-76
2022/02/05 10:53:40;;;;;;;;;;;6.20;99.90;;;;;;4998365;28;19972;-77
2022/02/05 10:56:13;;;;;;;;;;;6.30;99.90;;;;;;5002505;28;21287;-77
2022/02/05 10:58:58;;;;;;;;;;;6.30;99.90;;;;;;5003320;28;20012;-77
2022/02/05 11:06:55;;;;;;;;;;;6.50;99.90;;;;;;4999397;28;19972;-75
2022/02/05 11:09:23;;;;;;;;;;;6.60;99.90;;;;;;5004246;28;20029;-74
2022/02/05 11:18:00;;;;;;;;;;;6.80;99.90;;;;;;5005008;28;19940;-75
2022/02/05 11:20:20;;;;;;;;;;;6.80;99.90;;;;;;5003711;28;19932;-74
2022/02/05 11:22:48;;;;;;;;;;;6.90;99.90;;;;;;5002682;28;20019;-75
2022/02/05 11:25:16;;;;;;;;;;;6.90;99.90;;;;;;4998516;28;19925;-75
2022/02/05 11:27:47;;;;;;;;;;;6.90;99.90;;;;;;4997196;28;19925;-76
2022/02/05 11:30:32;;;;;;;;;;;6.90;99.90;;;;;;5005773;28;20281;-79
2022/02/05 11:33:03;;;;;;;;;;;7.00;99.90;;;;;;5002702;28;20316;-77
2022/02/05 11:35:40;;;;;;;;;;;7.10;99.90;;;;;;5006871;28;19933;-77
2022/02/05 11:38:07;;;;;;;;;;;7.00;99.90;;;;;;4996712;28;19932;-75
2022/02/05 11:40:51;;;;;;;;;;;7.10;99.90;;;;;;4998443;28;20025;-77
2022/02/05 11:43:20;;;;;;;;;;;7.20;99.80;;;;;;5004218;28;20017;-77
2022/02/05 11:46:05;;;;;;;;;;;7.20;99.50;;;;;;5006740;28;20310;-77
2022/02/05 11:48:59;;;;;;;;;;;7.20;99.30;;;;;;4997871;28;20399;-78
2022/02/05 11:51:27;;;;;;;;;;;7.30;98.70;;;;;;4983431;28;19932;-74
2022/02/05 11:54:14;;;;;;;;;;;7.40;98.60;;;;;;4999974;28;19932;-75
2022/02/05 11:56:50;;;;;;;;;;;7.40;97.50;;;;;;5003013;28;19948;-76
2022/02/05 11:59:19;;;;;;;;;;;7.50;98.20;;;;;;5005605;28;19984;-75
2022/02/05 12:01:46;;;;;;;;;;;7.60;98.00;;;;;;4998230;28;19925;-75
2022/02/05 12:04:14;;;;;;;;;;;7.60;97.70;;;;;;5000980;28;20181;-75
2022/02/05 12:06:45;;;;;;;;;;;7.60;98.00;;;;;;5006059;28;20024;-75
2022/02/05 12:09:26;;;;;;;;;;;7.70;97.70;;;;;;5003080;28;20020;-75
2022/02/05 12:11:53;;;;;;;;;;;7.70;96.90;;;;;;5004231;28;20043;-74
2022/02/05 12:14:21;;;;;;;;;;;7.70;96.90;;;;;;5006347;28;19956;-74
2022/02/05 12:17:09;;;;;;;;;;;7.70;96.70;;;;;;5001364;28;20429;-74
2022/02/05 12:19:51;;;;;;;;;;;7.70;96.50;;;;;;5008825;28;19926;-68
2022/02/05 12:22:23;;;;;;;;;;;7.80;97.10;;;;;;5001849;28;19925;-68
2022/02/05 12:25:12;;;;;;;;;;;7.80;96.50;;;;;;5002177;28;19930;-68
2022/02/05 12:27:38;;;;;;;;;;;7.80;96.60;;;;;;5005851;28;20045;-68
2022/02/05 12:30:24;;;;;;;;;;;7.80;96.00;;;;;;5007432;28;19925;-67
2022/02/05 12:32:52;;;;;;;;;;;7.80;95.50;;;;;;4999032;28;19952;-68
2022/02/05 12:35:19;;;;;;;;;;;7.80;94.20;;;;;;5008718;28;19934;-76
2022/02/05 12:37:46;;;;;;;;;;;7.90;94.60;;;;;;5009304;28;20004;-76
2022/02/05 12:40:12;;;;;;;;;;;8.10;93.90;;;;;;5004635;28;19973;-76
2022/02/05 12:42:40;;;;;;;;;;;8.20;93.30;;;;;;5003502;28;20028;-76
2022/02/05 12:45:08;;;;;;;;;;;8.20;93.10;;;;;;5004262;28;19926;-73
2022/02/05 12:47:40;;;;;;;;;;;8.20;92.50;;;;;;5000286;28;19945;-76
2022/02/05 12:50:11;;;;;;;;;;;8.20;92.50;;;;;;4996797;28;19949;-76
2022/02/05 12:52:38;;;;;;;;;;;8.20;92.20;;;;;;5001982;28;19929;-76
2022/02/05 12:55:13;;;;;;;;;;;8.40;93.00;;;;;;5007748;28;20016;-74
2022/02/05 12:57:44;;;;;;;;;;;8.40;92.50;;;;;;5002036;28;19929;-73
2022/02/05 13:00:12;;;;;;;;;;;8.30;92.30;;;;;;5014841;28;19925;-75
2022/02/05 13:02:40;;;;;;;;;;;8.40;92.70;;;;;;4999858;28;19925;-73
2022/02/05 13:05:07;;;;;;;;;;;8.60;91.70;;;;;;5005398;28;19947;-75
2022/02/05 13:07:40;;;;;;;;;;;8.60;91.50;;;;;;5005372;28;20052;-74
2022/02/05 13:10:07;;;;;;;;;;;8.80;91.70;;;;;;5017373;28;19936;-74
2022/02/05 13:12:36;;;;;;;;;;;9.00;90.60;;;;;;5000661;28;20012;-73
2022/02/05 13:15:07;;;;;;;;;;;8.80;90.00;;;;;;5006803;28;19932;-74
2022/02/05 13:17:42;;;;;;;;;;;8.60;90.40;;;;;;4997029;28;19971;-73
2022/02/05 13:25:50;;;;;;;;;;;8.90;90.20;;;;;;4996887;28;19937;-72
2022/02/05 13:28:36;;;;;;;;;;;8.90;90.20;;;;;;4998675;28;20464;-75
2022/02/05 13:36:43;;;;;;;;;;;8.90;90.90;;;;;;5003393;28;19925;-77
2022/02/05 13:39:24;;;;;;;;;;;8.70;90.90;;;;;;5009514;28;19930;-77
2022/02/05 13:41:55;;;;;;;;;;;8.50;91.10;;;;;;5002896;28;19933;-78
2022/02/05 13:44:24;;;;;;;;;;;8.40;91.30;;;;;;5008844;28;19968;-77
2022/02/05 13:47:01;;;;;;;;;;;8.30;91.40;;;;;;5001141;28;20403;-78
2022/02/05 13:49:28;;;;;;;;;;;8.30;91.70;;;;;;5006475;28;19933;-77
2022/02/05 13:51:54;;;;;;;;;;;8.40;92.20;;;;;;4999868;28;19940;-78
2022/02/05 13:54:32;;;;;;;;;;;8.40;91.80;;;;;;4994605;28;19952;-76
2022/02/05 13:56:59;;;;;;;;;;;8.30;92.20;;;;;;5014987;28;20315;-77
2022/02/05 13:59:26;;;;;;;;;;;8.30;92.30;;;;;;5008163;28;19925;-78
2022/02/05 14:01:52;;;;;;;;;;;8.40;92.20;;;;;;5014643;28;19933;-76
2022/02/05 14:04:23;;;;;;;;;;;8.60;92.70;;;;;;5002445;28;19932;-73
2022/02/05 14:06:53;;;;;;;;;;;8.70;92.40;;;;;;5001785;28;19929;-75
2022/02/05 14:09:26;;;;;;;;;;;8.70;92.50;;;;;;5006550;28;19929;-76
2022/02/05 14:11:53;;;;;;;;;;;8.80;92.50;;;;;;5004394;28;19929;-75
2022/02/05 14:14:27;;;;;;;;;;;8.80;92.70;;;;;;4996572;28;20733;-75
2022/02/05 14:16:54;;;;;;;;;;;8.80;92.10;;;;;;5001571;28;19933;-75
2022/02/05 14:19:21;;;;;;;;;;;8.80;91.80;;;;;;5009871;28;19926;-74
2022/02/05 14:21:49;;;;;;;;;;;8.80;91.60;;;;;;5001224;28;19987;-74
2022/02/05 14:24:16;;;;;;;;;;;8.90;91.80;;;;;;5001024;28;20156;-74
2022/02/05 14:26:56;;;;;;;;;;;8.90;92.10;;;;;;4996316;28;19926;-74
2022/02/05 14:29:23;;;;;;;;;;;8.70;91.50;;;;;;5002509;28;19926;-75
2022/02/05 14:31:54;;;;;;;;;;;8.60;92.10;;;;;;5005290;28;20032;-75
2022/02/05 14:34:23;;;;;;;;;;;8.60;92.70;;;;;;4999646;28;19926;-75
2022/02/05 14:42:28;;;;;;;;;;;8.50;92.30;;;;;;5006994;28;19932;-75
2022/02/05 14:44:55;;;;;;;;;;;8.50;93.00;;;;;;5000774;28;19925;-75
2022/02/05 14:47:22;;;;;;;;;;;8.50;92.90;;;;;;5002029;28;20008;-74
2022/02/05 14:49:49;;;;;;;;;;;8.40;92.90;;;;;;5012100;28;19934;-74
2022/02/05 14:52:16;;;;;;;;;;;8.50;93.00;;;;;;5004124;28;19925;-74
2022/02/05 14:54:43;;;;;;;;;;;8.60;92.80;;;;;;5001786;28;19926;-74
2022/02/05 14:57:10;;;;;;;;;;;8.70;93.10;;;;;;4999797;28;19926;-72
2022/02/05 14:59:38;;;;;;;;;;;8.80;92.80;;;;;;5008883;28;19932;-76
2022/02/05 15:02:07;;;;;;;;;;;8.90;93.00;;;;;;5001907;28;20475;-75
2022/02/05 15:04:34;;;;;;;;;;;8.80;91.90;;;;;;4999907;28;20365;-75
2022/02/05 15:07:01;;;;;;;;;;;8.80;92.70;;;;;;5003300;28;19932;-75
2022/02/05 15:09:27;;;;;;;;;;;8.70;92.70;;;;;;5008763;28;19972;-75
2022/02/05 15:11:54;;;;;;;;;;;8.60;92.60;;;;;;5003557;28;19932;-75
2022/02/05 15:14:21;;;;;;;;;;;8.50;92.60;;;;;;5002718;28;19965;-74
2022/02/05 15:16:49;;;;;;;;;;;8.50;92.50;;;;;;5003953;28;19987;-74
2022/02/05 15:19:15;;;;;;;;;;;8.40;93.00;;;;;;4993887;28;20395;-76
2022/02/05 15:21:43;;;;;;;;;;;8.50;93.20;;;;;;4994332;28;19976;-75
2022/02/05 15:24:10;;;;;;;;;;;8.40;93.10;;;;;;4997449;28;20348;-76
2022/02/05 15:26:37;;;;;;;;;;;8.30;93.30;;;;;;4996024;28;19932;-75
2022/02/05 15:29:05;;;;;;;;;;;8.30;93.80;;;;;;4997770;28;19964;-75
2022/02/05 15:31:32;;;;;;;;;;;8.30;93.80;;;;;;4999144;28;19932;-76
2022/02/05 15:34:02;;;;;;;;;;;8.30;93.90;;;;;;5005986;28;20329;-75
2022/02/05 15:36:33;;;;;;;;;;;8.20;94.00;;;;;;4992634;28;19933;-74
2022/02/05 15:39:16;;;;;;;;;;;8.10;94.30;;;;;;5008071;28;19925;-75
2022/02/05 15:44:27;;;;;;;;;;;8.10;94.90;;;;;;5006260;28;20452;-75
2022/02/05 15:46:53;;;;;;;;;;;8.00;95.30;;;;;;5008228;28;20396;-75
2022/02/05 15:49:21;;;;;;;;;;;7.90;95.20;;;;;;5007793;28;19925;-75
2022/02/05 15:51:48;;;;;;;;;;;7.90;95.40;;;;;;5007870;28;19936;-75
2022/02/05 15:54:16;;;;;;;;;;;7.90;95.70;;;;;;5002236;28;20024;-75
2022/02/05 15:56:47;;;;;;;;;;;7.90;95.70;;;;;;5010538;28;19933;-75
2022/02/05 15:59:18;;;;;;;;;;;7.90;95.70;;;;;;5004763;28;19926;-75
2022/02/05 16:01:45;;;;;;;;;;;7.80;95.80;;;;;;5012637;28;19929;-75
2022/02/05 16:04:12;;;;;;;;;;;7.80;95.90;;;;;;5006917;28;20359;-75
2022/02/05 16:06:40;;;;;;;;;;;7.80;95.90;;;;;;5006338;28;19970;-75
2022/02/05 16:09:07;;;;;;;;;;;7.80;95.70;;;;;;4996139;28;20366;-75
2022/02/05 16:11:34;;;;;;;;;;;7.80;95.90;;;;;;5006541;28;19932;-74
2022/02/05 16:14:01;;;;;;;;;;;7.80;95.80;;;;;;5009242;28;19935;-74
2022/02/05 16:16:27;;;;;;;;;;;7.80;95.80;;;;;;5004183;28;19931;-74
2022/02/05 16:18:55;;;;;;;;;;;7.90;96.30;;;;;;4999404;28;19940;-74
2022/02/05 16:21:22;;;;;;;;;;;7.80;95.90;;;;;;5004561;28;19933;-74
2022/02/05 16:23:52;;;;;;;;;;;7.80;95.80;;;;;;4999729;28;19940;-74
2022/02/05 16:26:18;;;;;;;;;;;7.80;95.70;;;;;;5000065;28;20376;-73
2022/02/05 16:28:45;;;;;;;;;;;7.90;95.80;;;;;;4996344;28;20405;-74
2022/02/05 16:31:12;;;;;;;;;;;7.80;95.90;;;;;;4995460;28;19936;-74
2022/02/05 16:33:41;;;;;;;;;;;7.80;96.00;;;;;;4995939;28;20012;-74
2022/02/05 16:36:10;;;;;;;;;;;7.80;96.00;;;;;;5002179;28;20280;-74
2022/02/05 16:38:37;;;;;;;;;;;7.80;96.00;;;;;;5005734;28;19952;-74
2022/02/05 16:41:06;;;;;;;;;;;7.80;96.00;;;;;;5013079;28;19925;-74
2022/02/05 16:43:34;;;;;;;;;;;7.80;96.30;;;;;;4994745;28;20268;-74
2022/02/05 16:46:00;;;;;;;;;;;7.70;96.50;;;;;;4992442;28;19926;-73
2022/02/05 16:48:27;;;;;;;;;;;7.70;96.60;;;;;;4991921;28;19936;-75
2022/02/05 16:50:54;;;;;;;;;;;7.70;96.80;;;;;;4997621;28;19940;-74
2022/02/05 16:53:20;;;;;;;;;;;7.70;96.90;;;;;;4995802;28;19925;-74
2022/02/05 16:55:47;;;;;;;;;;;7.70;96.70;;;;;;4994684;28;20316;-76
2022/02/05 16:58:15;;;;;;;;;;;7.70;96.80;;;;;;4992037;28;19940;-75
2022/02/05 17:00:42;;;;;;;;;;;7.70;97.00;;;;;;4993261;28;19930;-75
2022/02/05 17:03:09;;;;;;;;;;;7.60;96.90;;;;;;5023913;28;19936;-75
2022/02/05 17:05:40;;;;;;;;;;;7.60;97.00;;;;;;5034904;28;19925;-74
2022/02/05 17:08:09;;;;;;;;;;;7.60;96.90;;;;;;5014288;28;19981;-75
2022/02/05 17:10:36;;;;;;;;;;;7.60;96.90;;;;;;4996658;28;19926;-75
2022/02/05 17:13:04;;;;;;;;;;;7.60;96.90;;;;;;5002443;28;19930;-75
2022/02/05 17:15:32;;;;;;;;;;;7.60;97.10;;;;;;4997236;28;19929;-75
2022/02/05 17:18:09;;;;;;;;;;;7.50;97.20;;;;;;4998839;28;19933;-75
2022/02/05 17:20:41;;;;;;;;;;;7.40;97.30;;;;;;4997594;28;19933;-75
2022/02/05 17:23:08;;;;;;;;;;;7.40;97.20;;;;;;5002890;28;19965;-74
2022/02/05 17:25:36;;;;;;;;;;;7.40;97.20;;;;;;5000798;28;19926;-75